createdAt,value
2018-12-31T00:01:24.564Z,7.20
2018-12-31T00:04:06.200Z,7.20
2018-12-31T00:06:46.632Z,7.30
2018-12-31T00:09:27.034Z,7.30
2018-12-31T00:12:07.803Z,7.30
2018-12-31T00:14:51.570Z,7.30
2018-12-31T00:17:32.167Z,7.20
2018-12-31T00:20:12.487Z,7.40
2018-12-31T00:22:53.623Z,7.40
2018-12-31T00:25:34.654Z,7.50
2018-12-31T00:28:14.997Z,7.50
2018-12-31T00:30:55.362Z,7.50
2018-12-31T00:33:37.735Z,7.60
2018-12-31T00:36:18.678Z,7.60
2018-12-31T00:38:59.343Z,7.70
2018-12-31T00:41:39.968Z,7.70
2018-12-31T00:44:23.574Z,7.70
2018-12-31T00:47:04.368Z,7.60
2018-12-31T00:49:45.364Z,7.70
2018-12-31T00:52:26.095Z,7.70
2018-12-31T00:55:06.422Z,7.70
2018-12-31T00:57:47.259Z,7.80
2018-12-31T01:00:28.426Z,7.70
2018-12-31T01:03:09.464Z,7.80
2018-12-31T01:05:50.311Z,7.80
2018-12-31T01:08:30.812Z,7.80
2018-12-31T01:11:12.021Z,7.80
2018-12-31T01:13:52.452Z,7.80
2018-12-31T01:16:32.844Z,7.80
2018-12-31T01:19:13.900Z,7.80
2018-12-31T01:21:54.494Z,7.80
2018-12-31T01:24:35.435Z,7.90
2018-12-31T01:27:16.087Z,7.90
2018-12-31T01:29:56.797Z,8.00
2018-12-31T01:32:37.719Z,8.00
2018-12-31T01:35:18.895Z,8.00
2018-12-31T01:37:59.898Z,8.00
2018-12-31T01:40:41.780Z,8.10
2018-12-31T01:43:22.221Z,8.00
2018-12-31T01:46:02.662Z,8.00
2018-12-31T01:48:43.117Z,8.00
2018-12-31T01:51:23.444Z,8.10
2018-12-31T01:54:04.583Z,8.10
2018-12-31T01:56:45.516Z,8.00
2018-12-31T01:59:26.608Z,8.10
2018-12-31T02:02:07.231Z,8.00
2018-12-31T02:04:47.672Z,8.10
2018-12-31T02:07:28.664Z,8.10
2018-12-31T02:10:08.967Z,8.10
2018-12-31T02:12:49.741Z,8.10
2018-12-31T02:15:30.938Z,8.00
2018-12-31T02:18:11.736Z,7.90
2018-12-31T02:20:52.362Z,7.90
2018-12-31T02:23:33.284Z,7.90
2018-12-31T02:26:14.230Z,7.90
2018-12-31T02:28:55.121Z,7.90
2018-12-31T02:31:36.335Z,7.90
2018-12-31T02:34:17.509Z,8.00
2018-12-31T02:36:58.538Z,7.90
2018-12-31T02:39:37.369Z,7.90
2018-12-31T02:42:25.280Z,8.00
2018-12-31T02:45:13.149Z,8.00
2018-12-31T02:48:00.993Z,7.90
2018-12-31T02:50:48.888Z,7.90
2018-12-31T02:53:36.843Z,8.00
2018-12-31T02:56:24.727Z,7.90
2018-12-31T02:59:12.629Z,7.90
2018-12-31T03:02:00.430Z,7.90
2018-12-31T03:04:48.252Z,7.90
2018-12-31T03:07:36.148Z,7.80
2018-12-31T03:10:24.031Z,7.80
2018-12-31T03:13:11.862Z,7.80
2018-12-31T03:15:59.657Z,7.80
2018-12-31T03:18:47.495Z,7.80
2018-12-31T03:21:35.395Z,7.80
2018-12-31T03:24:23.291Z,7.80
2018-12-31T03:27:11.114Z,7.80
2018-12-31T03:29:58.924Z,7.80
2018-12-31T03:32:39.366Z,7.90
2018-12-31T03:35:19.940Z,7.90
2018-12-31T03:38:00.268Z,7.90
2018-12-31T03:40:41.334Z,7.90
2018-12-31T03:43:21.918Z,7.90
2018-12-31T03:46:02.567Z,7.90
2018-12-31T03:48:43.327Z,7.90
2018-12-31T03:51:24.099Z,7.90
2018-12-31T03:54:04.479Z,8.00
2018-12-31T03:56:45.487Z,8.00
2018-12-31T03:59:26.423Z,7.90
2018-12-31T04:02:07.568Z,7.90
2018-12-31T04:04:46.433Z,7.90
2018-12-31T04:07:34.339Z,7.90
2018-12-31T04:10:22.230Z,7.90
2018-12-31T04:13:10.043Z,7.90
2018-12-31T04:15:57.858Z,7.90
2018-12-31T04:18:45.688Z,7.90
2018-12-31T04:21:52.949Z,7.90
2018-12-31T04:24:40.835Z,7.90
2018-12-31T04:27:28.717Z,7.90
2018-12-31T04:30:09.600Z,7.90
2018-12-31T04:32:49.983Z,7.90
2018-12-31T04:35:32.856Z,7.90
2018-12-31T04:38:13.501Z,7.90
2018-12-31T04:40:54.539Z,8.00
2018-12-31T04:43:35.687Z,8.00
2018-12-31T04:46:16.183Z,8.00
2018-12-31T04:48:56.563Z,8.00
2018-12-31T04:51:37.444Z,7.90
2018-12-31T04:54:18.165Z,8.00
2018-12-31T04:56:59.146Z,8.00
2018-12-31T04:59:39.512Z,8.00
2018-12-31T05:02:20.583Z,8.00
2018-12-31T05:05:01.401Z,8.10
2018-12-31T05:07:40.308Z,8.10
2018-12-31T05:13:36.664Z,8.10
2018-12-31T05:16:24.542Z,8.20
2018-12-31T05:19:12.395Z,8.20
2018-12-31T05:22:00.442Z,8.20
2018-12-31T05:24:48.286Z,8.20
2018-12-31T05:27:36.197Z,8.20
2018-12-31T05:30:19.874Z,8.20
2018-12-31T05:33:01.015Z,8.10
2018-12-31T05:35:41.565Z,8.20
2018-12-31T05:38:21.895Z,8.20
2018-12-31T05:41:02.737Z,8.20
2018-12-31T05:43:43.271Z,8.30
2018-12-31T05:46:24.825Z,8.30
2018-12-31T05:49:05.294Z,8.30
2018-12-31T05:51:46.407Z,8.30
2018-12-31T05:54:26.696Z,8.30
2018-12-31T05:57:05.428Z,8.30
2018-12-31T05:59:53.339Z,8.30
2018-12-31T06:02:41.229Z,8.30
2018-12-31T06:05:29.121Z,8.30
2018-12-31T06:08:16.921Z,8.30
2018-12-31T06:11:04.771Z,8.30
2018-12-31T06:13:52.639Z,8.30
2018-12-31T06:16:40.455Z,8.30
2018-12-31T06:19:28.369Z,8.40
2018-12-31T06:22:16.305Z,8.40
2018-12-31T06:25:04.632Z,8.40
2018-12-31T06:28:03.934Z,8.40
2018-12-31T06:30:32.989Z,8.40
2018-12-31T06:33:20.878Z,8.50
2018-12-31T06:36:01.661Z,8.50
2018-12-31T06:38:42.745Z,8.50
2018-12-31T06:41:23.039Z,8.50
2018-12-31T06:44:03.395Z,8.40
2018-12-31T06:46:44.620Z,8.40
2018-12-31T06:49:25.746Z,8.50
2018-12-31T06:52:06.274Z,8.50
2018-12-31T06:54:46.614Z,8.60
2018-12-31T06:57:27.347Z,8.50
2018-12-31T07:00:08.499Z,8.60
2018-12-31T07:02:49.684Z,8.60
2018-12-31T07:05:30.194Z,8.60
2018-12-31T07:08:11.088Z,8.60
2018-12-31T07:10:52.080Z,8.70
2018-12-31T07:13:33.029Z,8.60
2018-12-31T07:16:13.344Z,8.60
2018-12-31T07:18:53.845Z,8.70
2018-12-31T07:21:34.514Z,8.60
2018-12-31T07:24:15.275Z,8.70
2018-12-31T07:26:56.035Z,8.70
2018-12-31T07:29:39.120Z,8.70
2018-12-31T07:32:19.591Z,8.70
2018-12-31T07:35:00.738Z,8.70
2018-12-31T07:37:41.330Z,8.80
2018-12-31T07:40:22.140Z,8.80
2018-12-31T07:43:03.120Z,8.90
2018-12-31T07:45:44.332Z,8.90
2018-12-31T07:48:24.825Z,8.80
2018-12-31T07:51:05.417Z,8.90
2018-12-31T07:53:46.012Z,8.80
2018-12-31T07:56:26.898Z,8.80
2018-12-31T07:59:07.394Z,8.90
2018-12-31T08:01:47.883Z,8.90
2018-12-31T08:04:28.596Z,8.90
2018-12-31T08:07:09.231Z,8.90
2018-12-31T08:09:48.094Z,8.90
2018-12-31T08:12:36.014Z,9.00
2018-12-31T08:15:23.891Z,9.00
2018-12-31T08:18:11.712Z,9.00
2018-12-31T08:20:59.558Z,9.10
2018-12-31T08:23:47.429Z,9.10
2018-12-31T08:26:42.300Z,9.10
2018-12-31T08:29:30.180Z,9.10
2018-12-31T08:32:18.001Z,9.10
2018-12-31T08:35:05.870Z,9.20
2018-12-31T08:37:46.594Z,9.20
2018-12-31T08:40:27.642Z,9.20
2018-12-31T08:43:08.142Z,9.20
2018-12-31T08:45:49.141Z,9.20
2018-12-31T08:48:30.328Z,9.20
2018-12-31T08:51:11.456Z,9.20
2018-12-31T08:53:52.111Z,9.20
2018-12-31T08:56:33.153Z,9.20
2018-12-31T08:59:14.270Z,9.30
2018-12-31T09:01:55.506Z,9.30
2018-12-31T09:04:36.632Z,9.40
2018-12-31T09:07:18.393Z,9.40
2018-12-31T09:09:58.784Z,9.40
2018-12-31T09:12:39.537Z,9.50
2018-12-31T09:15:19.919Z,9.50
2018-12-31T09:17:58.791Z,9.60
2018-12-31T09:23:55.220Z,9.70
2018-12-31T09:26:43.136Z,9.60
2018-12-31T09:29:31.014Z,9.60
2018-12-31T09:32:18.841Z,9.70
2018-12-31T09:35:06.640Z,9.80
2018-12-31T09:37:47.561Z,9.80
2018-12-31T09:40:27.964Z,9.90
2018-12-31T09:43:09.037Z,9.90
2018-12-31T09:45:50.258Z,9.90
2018-12-31T09:48:30.900Z,9.90
2018-12-31T09:51:11.267Z,9.90
2018-12-31T09:53:52.422Z,9.90
2018-12-31T09:56:33.389Z,9.90
2018-12-31T09:59:14.467Z,9.90
2018-12-31T10:01:54.992Z,9.90
2018-12-31T10:04:35.683Z,10.00
2018-12-31T10:07:16.035Z,10.00
2018-12-31T10:09:57.305Z,9.90
2018-12-31T10:12:38.572Z,9.90
2018-12-31T10:15:17.404Z,9.90
2018-12-31T10:18:05.226Z,9.90
2018-12-31T10:20:53.136Z,10.00
2018-12-31T10:23:41.031Z,10.10
2018-12-31T10:26:28.846Z,10.10
2018-12-31T10:29:16.675Z,10.00
2018-12-31T10:32:04.537Z,10.00
2018-12-31T10:34:52.409Z,10.00
2018-12-31T10:37:33.370Z,10.00
2018-12-31T10:40:14.200Z,10.00
2018-12-31T10:42:54.880Z,9.90
2018-12-31T10:45:36.121Z,9.90
2018-12-31T10:48:17.231Z,9.90
2018-12-31T10:50:57.884Z,9.90
2018-12-31T10:53:39.431Z,10.00
2018-12-31T10:56:20.457Z,10.00
2018-12-31T10:58:59.309Z,10.00
2018-12-31T11:01:47.118Z,10.10
2018-12-31T11:04:35.034Z,10.10
2018-12-31T11:07:22.949Z,10.20
2018-12-31T11:13:19.368Z,10.40
2018-12-31T11:16:07.256Z,10.50
2018-12-31T11:19:14.287Z,10.60
2018-12-31T11:22:02.211Z,10.60
2018-12-31T11:27:56.926Z,10.50
2018-12-31T11:30:44.803Z,10.50
2018-12-31T11:33:32.659Z,10.40
2018-12-31T11:36:20.542Z,10.40
2018-12-31T11:39:01.335Z,10.40
2018-12-31T11:41:42.134Z,10.50
2018-12-31T11:44:23.381Z,10.40
2018-12-31T11:47:04.630Z,10.50
2018-12-31T11:49:45.674Z,10.60
2018-12-31T11:52:26.015Z,10.60
2018-12-31T11:55:06.873Z,10.60
2018-12-31T11:57:47.327Z,10.50
2018-12-31T12:00:26.074Z,10.40
2018-12-31T12:03:13.974Z,10.30
2018-12-31T12:06:01.823Z,10.30
2018-12-31T12:08:49.730Z,10.30
2018-12-31T12:11:37.645Z,10.30
2018-12-31T12:14:25.565Z,10.20
2018-12-31T12:17:15.095Z,10.40
2018-12-31T12:20:02.970Z,10.50
2018-12-31T12:22:52.497Z,10.40
2018-12-31T12:25:40.423Z,10.40
2018-12-31T12:28:29.998Z,10.40
2018-12-31T12:31:17.906Z,10.40
2018-12-31T12:34:07.482Z,10.50
2018-12-31T12:36:55.374Z,10.60
2018-12-31T12:40:04.099Z,10.50
2018-12-31T12:42:52.015Z,10.60
2018-12-31T12:45:39.900Z,10.50
2018-12-31T12:48:27.830Z,10.50
2018-12-31T12:51:15.741Z,10.60
2018-12-31T12:54:03.655Z,10.60
2018-12-31T12:56:51.570Z,10.60
2018-12-31T12:59:39.474Z,10.50
2018-12-31T13:02:27.430Z,10.60
2018-12-31T13:05:15.303Z,10.50
2018-12-31T13:08:03.187Z,10.50
2018-12-31T13:10:51.101Z,10.60
2018-12-31T13:13:59.854Z,10.60
2018-12-31T13:16:47.742Z,10.60
2018-12-31T13:19:35.663Z,10.60
2018-12-31T13:22:23.841Z,10.60
2018-12-31T13:25:11.740Z,10.60
2018-12-31T13:27:59.649Z,10.60
2018-12-31T13:30:40.306Z,10.60
2018-12-31T13:33:21.009Z,10.70
2018-12-31T13:36:01.865Z,10.70
2018-12-31T13:38:42.470Z,10.60
2018-12-31T13:41:23.102Z,10.70
2018-12-31T13:44:03.562Z,10.70
2018-12-31T13:46:47.618Z,10.70
2018-12-31T13:49:26.529Z,10.70
2018-12-31T13:52:14.433Z,10.70
2018-12-31T13:55:02.337Z,10.80
2018-12-31T13:57:51.892Z,10.70
2018-12-31T14:00:39.813Z,10.60
2018-12-31T14:03:27.740Z,10.60
2018-12-31T14:06:15.980Z,10.60
2018-12-31T14:09:24.663Z,10.60
2018-12-31T14:12:14.223Z,10.50
2018-12-31T14:15:02.235Z,10.50
2018-12-31T14:17:51.697Z,10.50
2018-12-31T14:20:39.619Z,10.40
2018-12-31T14:23:27.548Z,10.40
2018-12-31T14:26:15.472Z,10.50
2018-12-31T14:29:22.665Z,10.50
2018-12-31T14:32:06.748Z,10.40
2018-12-31T14:34:47.147Z,10.40
2018-12-31T14:37:28.127Z,10.30
2018-12-31T14:40:08.420Z,10.40
2018-12-31T14:42:49.407Z,10.30
2018-12-31T14:45:28.319Z,10.30
2018-12-31T14:48:16.223Z,10.40
2018-12-31T14:51:04.146Z,10.40
2018-12-31T14:56:58.940Z,10.30
2018-12-31T14:59:46.873Z,10.30
2018-12-31T15:02:34.783Z,10.30
2018-12-31T15:05:22.712Z,10.30
2018-12-31T15:08:10.606Z,10.30
2018-12-31T15:10:58.946Z,10.40
2018-12-31T15:13:46.875Z,10.40
2018-12-31T15:16:36.440Z,10.40
2018-12-31T15:22:31.315Z,10.30
2018-12-31T15:25:19.251Z,10.30
2018-12-31T15:28:07.143Z,10.30
2018-12-31T15:30:47.914Z,10.30
2018-12-31T15:33:28.846Z,10.30
2018-12-31T15:36:09.527Z,10.30
2018-12-31T15:38:48.351Z,10.30
2018-12-31T15:41:36.282Z,10.30
2018-12-31T15:44:24.180Z,10.30
2018-12-31T15:47:12.135Z,10.20
2018-12-31T15:50:00.709Z,10.20
2018-12-31T15:52:48.605Z,10.20
2018-12-31T15:55:36.538Z,10.10
2018-12-31T15:58:24.418Z,10.10
2018-12-31T16:01:12.368Z,10.10
2018-12-31T16:04:01.908Z,10.10
2018-12-31T16:06:49.833Z,10.10
2018-12-31T16:09:39.397Z,10.10
2018-12-31T16:12:27.303Z,10.00
2018-12-31T16:18:09.157Z,10.00
2018-12-31T16:20:58.739Z,10.00
2018-12-31T16:23:46.651Z,10.10
2018-12-31T16:26:36.214Z,10.00
2018-12-31T16:29:17.081Z,10.00
2018-12-31T16:31:57.481Z,10.00
2018-12-31T16:34:38.142Z,10.00
2018-12-31T16:37:18.936Z,10.10
2018-12-31T16:40:00.169Z,9.90
2018-12-31T16:42:41.061Z,9.80
2018-12-31T16:45:21.447Z,9.80
2018-12-31T16:48:02.131Z,9.90
2018-12-31T16:50:43.134Z,9.90
2018-12-31T16:53:24.129Z,9.90
2018-12-31T16:56:05.351Z,9.80
2018-12-31T16:58:46.068Z,9.70
2018-12-31T17:01:27.065Z,9.70
2018-12-31T17:04:07.943Z,9.70
2018-12-31T17:06:49.032Z,9.70
2018-12-31T17:09:29.787Z,9.60
2018-12-31T17:12:10.193Z,9.60
2018-12-31T17:14:50.588Z,9.60
2018-12-31T17:17:31.365Z,9.60
2018-12-31T17:20:10.316Z,9.60
2018-12-31T17:22:58.229Z,9.50
2018-12-31T17:25:46.121Z,9.50
2018-12-31T17:28:26.891Z,9.50
2018-12-31T17:31:08.102Z,9.40
2018-12-31T17:33:49.203Z,9.50
2018-12-31T17:36:29.721Z,9.50
2018-12-31T17:39:11.213Z,9.40
2018-12-31T17:41:52.410Z,9.40
2018-12-31T17:44:33.599Z,9.40
2018-12-31T17:47:14.076Z,9.50
2018-12-31T17:49:55.186Z,9.50
2018-12-31T17:52:35.494Z,9.50
2018-12-31T17:55:16.082Z,9.60
2018-12-31T17:57:56.713Z,9.50
2018-12-31T18:00:37.285Z,9.50
2018-12-31T18:03:18.338Z,9.50
2018-12-31T18:05:59.459Z,9.50
2018-12-31T18:08:40.051Z,9.50
2018-12-31T18:11:20.387Z,9.50
2018-12-31T18:14:00.863Z,9.60
2018-12-31T18:16:41.261Z,9.70
2018-12-31T18:19:20.092Z,9.60
2018-12-31T18:22:07.909Z,9.60
2018-12-31T18:24:55.809Z,9.60
2018-12-31T18:27:43.728Z,9.60
2018-12-31T18:30:46.119Z,9.60
2018-12-31T18:33:21.179Z,9.70
2018-12-31T18:39:15.953Z,9.60
2018-12-31T18:45:02.300Z,9.60
2018-12-31T18:47:50.227Z,9.70
2018-12-31T18:50:38.133Z,9.60
2018-12-31T18:53:26.063Z,9.70
2018-12-31T18:56:13.935Z,9.70
2018-12-31T18:59:01.859Z,9.70
2018-12-31T19:01:49.768Z,9.80
2018-12-31T19:04:37.661Z,9.70
2018-12-31T19:07:25.637Z,9.80
2018-12-31T19:10:15.093Z,9.80
2018-12-31T19:13:03.018Z,9.80
2018-12-31T19:15:50.889Z,9.70
2018-12-31T19:18:38.701Z,9.70
2018-12-31T19:21:26.523Z,9.70
2018-12-31T19:24:14.421Z,9.80
2018-12-31T19:27:02.323Z,9.80
2018-12-31T19:29:51.859Z,9.80
2018-12-31T19:32:39.779Z,9.80
2018-12-31T19:35:29.305Z,9.80
2018-12-31T19:38:17.219Z,9.70
2018-12-31T19:41:05.111Z,9.70
2018-12-31T19:43:53.031Z,9.70
2018-12-31T19:46:41.759Z,9.60
2018-12-31T19:49:29.677Z,9.60
2018-12-31T19:52:17.586Z,9.60
2018-12-31T19:55:07.062Z,9.60
2018-12-31T19:57:55.063Z,9.50
2018-12-31T20:00:42.937Z,9.50
2018-12-31T20:03:30.794Z,9.40
2018-12-31T20:06:18.617Z,9.30
2018-12-31T20:09:06.440Z,9.30
2018-12-31T20:11:54.331Z,9.30
2018-12-31T20:17:37.903Z,9.20
2018-12-31T20:20:25.785Z,9.20
2018-12-31T20:23:13.782Z,9.20
2018-12-31T20:26:01.662Z,9.20
2018-12-31T20:28:49.574Z,9.20
2018-12-31T20:31:30.253Z,9.20
2018-12-31T20:34:10.649Z,9.20
2018-12-31T20:36:50.996Z,9.20
2018-12-31T20:39:32.128Z,9.20
2018-12-31T20:42:12.915Z,9.20
2018-12-31T20:44:53.307Z,9.20
2018-12-31T20:47:32.211Z,9.20
2018-12-31T20:50:20.158Z,9.30
2018-12-31T20:53:07.984Z,9.30
2018-12-31T20:55:55.902Z,9.30
2018-12-31T20:58:43.771Z,9.30
2018-12-31T21:01:31.676Z,9.30
2018-12-31T21:04:19.542Z,9.30
2018-12-31T21:07:07.436Z,9.40
2018-12-31T21:09:55.316Z,9.30
2018-12-31T21:12:43.134Z,9.40
2018-12-31T21:15:31.012Z,9.40
2018-12-31T21:18:18.932Z,9.40
2018-12-31T21:21:06.829Z,9.40
2018-12-31T21:26:49.653Z,9.40
2018-12-31T21:29:37.568Z,9.50
2018-12-31T21:32:18.074Z,9.40
2018-12-31T21:34:59.284Z,9.40
2018-12-31T21:37:39.892Z,9.40
2018-12-31T21:40:20.510Z,9.40
2018-12-31T21:43:01.678Z,9.40
2018-12-31T21:45:42.341Z,9.50
2018-12-31T21:48:23.359Z,9.50
2018-12-31T21:51:04.456Z,9.40
2018-12-31T21:53:45.136Z,9.50
2018-12-31T21:56:26.422Z,9.40
2018-12-31T21:59:06.934Z,9.50
2018-12-31T22:01:47.990Z,9.50
2018-12-31T22:04:28.714Z,9.50
2018-12-31T22:07:09.235Z,9.40
2018-12-31T22:09:49.725Z,9.40
2018-12-31T22:12:30.087Z,9.40
2018-12-31T22:15:11.695Z,9.30
2018-12-31T22:17:52.504Z,9.40
2018-12-31T22:20:31.378Z,9.30
2018-12-31T22:23:19.558Z,9.40
2018-12-31T22:26:07.447Z,9.40
2018-12-31T22:28:55.344Z,9.30
2018-12-31T22:31:36.390Z,9.40
2018-12-31T22:34:17.571Z,9.30
2018-12-31T22:36:58.611Z,9.30
2018-12-31T22:39:39.689Z,9.30
2018-12-31T22:42:21.043Z,9.30
2018-12-31T22:45:01.646Z,9.30
2018-12-31T22:47:42.719Z,9.20
2018-12-31T22:50:24.118Z,9.20
2018-12-31T22:53:05.034Z,9.20
2018-12-31T22:55:45.323Z,9.20
2018-12-31T22:58:25.759Z,9.30
2018-12-31T23:01:06.736Z,9.30
2018-12-31T23:03:47.771Z,9.30
2018-12-31T23:06:26.670Z,9.30
2018-12-31T23:09:14.577Z,9.20
2018-12-31T23:12:04.192Z,9.20
2018-12-31T23:14:52.149Z,9.20
2018-12-31T23:17:41.653Z,9.20
2018-12-31T23:20:29.721Z,9.10
2018-12-31T23:23:19.283Z,9.10
2018-12-31T23:26:07.200Z,9.00
2018-12-31T23:28:55.075Z,9.00
2018-12-31T23:31:42.942Z,9.00
2018-12-31T23:34:23.555Z,9.00
2018-12-31T23:37:04.291Z,9.00
2018-12-31T23:39:46.036Z,9.00
2018-12-31T23:42:26.753Z,9.10
2018-12-31T23:45:10.258Z,9.10
2018-12-31T23:47:50.877Z,9.10
2018-12-31T23:50:31.456Z,9.10
2018-12-31T23:53:12.339Z,9.10
2018-12-31T23:55:52.954Z,9.10
2018-12-31T23:58:33.598Z,9.10
